createdAt,value
2022-12-27T00:00:43.291Z,9.85
2022-12-27T00:03:49.890Z,9.78
2022-12-27T00:06:56.462Z,10.03
2022-12-27T00:10:03.272Z,9.20
2022-12-27T00:13:10.830Z,10.00
2022-12-27T00:16:25.665Z,9.85
2022-12-27T00:19:30.782Z,9.75
2022-12-27T00:22:31.764Z,9.38
2022-12-27T00:25:37.783Z,10.32
2022-12-27T00:28:45.902Z,10.65
2022-12-27T00:31:52.224Z,12.05
2022-12-27T00:35:00.305Z,11.97
2022-12-27T00:38:07.715Z,13.35
2022-12-27T00:41:12.743Z,13.18
2022-12-27T00:44:18.103Z,12.63
2022-12-27T00:47:24.507Z,12.50
2022-12-27T00:50:31.967Z,12.23
2022-12-27T00:53:38.005Z,11.08
2022-12-27T00:56:44.839Z,11.40
2022-12-27T00:59:50.384Z,12.43
2022-12-27T01:02:56.432Z,12.53
2022-12-27T01:06:03.686Z,13.90
2022-12-27T01:09:10.755Z,12.60
2022-12-27T01:12:16.936Z,10.60
2022-12-27T01:15:25.485Z,11.03
2022-12-27T01:18:31.251Z,10.03
2022-12-27T01:21:38.732Z,10.80
2022-12-27T01:24:47.341Z,10.98
2022-12-27T01:27:53.862Z,10.58
2022-12-27T01:30:59.226Z,12.10
2022-12-27T01:34:12.823Z,11.45
2022-12-27T01:37:19.052Z,11.35
2022-12-27T01:40:27.493Z,11.75
2022-12-27T01:43:33.268Z,12.45
2022-12-27T01:46:40.783Z,13.80
2022-12-27T01:49:46.913Z,13.38
2022-12-27T01:52:57.042Z,12.80
2022-12-27T01:56:11.237Z,12.10
2022-12-27T01:59:22.948Z,11.40
2022-12-27T02:02:28.856Z,12.00
2022-12-27T02:05:36.164Z,11.95
2022-12-27T02:09:24.164Z,12.47
2022-12-27T02:12:30.929Z,11.15
2022-12-27T02:15:37.070Z,9.75
2022-12-27T02:18:43.220Z,9.80
2022-12-27T02:22:27.570Z,9.98
2022-12-27T02:25:50.319Z,8.65
2022-12-27T02:29:26.332Z,8.30
2022-12-27T02:32:41.079Z,8.18
2022-12-27T02:35:55.219Z,8.33
2022-12-27T02:39:04.441Z,7.90
2022-12-27T02:42:28.399Z,8.33
2022-12-27T02:45:52.815Z,8.45
2022-12-27T02:49:28.119Z,8.75
2022-12-27T02:53:11.806Z,8.58
2022-12-27T02:57:02.910Z,8.35
2022-12-27T03:00:52.724Z,8.60
2022-12-27T03:04:48.581Z,9.65
2022-12-27T03:08:16.723Z,9.93
2022-12-27T03:11:42.123Z,10.08
2022-12-27T03:15:12.070Z,10.18
2022-12-27T03:18:30.053Z,9.15
2022-12-27T03:22:07.691Z,10.38
2022-12-27T03:25:34.154Z,10.28
2022-12-27T03:29:00.997Z,10.75
2022-12-27T03:32:30.738Z,11.15
2022-12-27T03:35:39.400Z,11.18
2022-12-27T03:38:44.598Z,12.65
2022-12-27T03:42:12.829Z,10.90
2022-12-27T03:45:23.280Z,11.45
2022-12-27T03:48:29.291Z,12.60
2022-12-27T03:51:36.471Z,11.53
2022-12-27T03:54:46.329Z,13.45
2022-12-27T03:57:54.005Z,12.23
2022-12-27T04:00:53.578Z,13.43
2022-12-27T04:03:45.871Z,13.00
2022-12-27T04:06:51.827Z,11.80
2022-12-27T04:10:15.720Z,12.10
2022-12-27T04:13:40.970Z,12.90
2022-12-27T04:17:04.539Z,12.55
2022-12-27T04:20:29.051Z,12.85
2022-12-27T04:23:53.514Z,12.88
2022-12-27T04:27:19.500Z,13.48
2022-12-27T04:30:43.472Z,13.80
2022-12-27T04:34:07.411Z,15.15
2022-12-27T04:37:14.074Z,14.00
2022-12-27T04:40:40.114Z,15.03
2022-12-27T04:44:06.407Z,16.23
2022-12-27T04:47:30.964Z,16.87
2022-12-27T04:51:02.594Z,15.98
2022-12-27T04:54:28.018Z,16.55
2022-12-27T04:57:33.434Z,17.17
2022-12-27T05:01:00.766Z,15.68
2022-12-27T05:04:08.240Z,15.20
2022-12-27T05:07:32.030Z,16.27
2022-12-27T05:10:56.239Z,16.02
2022-12-27T05:17:15.817Z,15.93
2022-12-27T05:20:22.425Z,17.07
2022-12-27T05:23:45.418Z,16.70
2022-12-27T05:26:51.641Z,16.50
2022-12-27T05:29:58.517Z,16.00
2022-12-27T05:33:07.457Z,16.70
2022-12-27T05:36:13.731Z,14.63
2022-12-27T05:39:20.374Z,15.00
2022-12-27T05:42:25.524Z,14.28
2022-12-27T05:45:30.318Z,14.55
2022-12-27T05:48:36.778Z,14.53
2022-12-27T05:51:42.591Z,14.35
2022-12-27T05:54:48.903Z,13.80
2022-12-27T05:57:54.750Z,13.35
2022-12-27T06:01:00.745Z,14.53
2022-12-27T06:04:06.667Z,12.98
2022-12-27T06:07:11.724Z,13.90
2022-12-27T06:10:18.175Z,12.33
2022-12-27T06:13:24.883Z,11.95
2022-12-27T06:16:30.535Z,10.88
2022-12-27T06:19:36.449Z,11.60
2022-12-27T06:22:42.298Z,11.33
2022-12-27T06:25:47.979Z,19.70
2022-12-27T06:28:56.406Z,10.45
2022-12-27T06:32:02.729Z,9.53
2022-12-27T06:35:10.992Z,10.13
2022-12-27T06:38:22.256Z,9.65
2022-12-27T06:41:29.647Z,9.13
2022-12-27T06:44:35.425Z,11.95
2022-12-27T06:47:41.799Z,9.78
2022-12-27T06:50:53.165Z,9.13
2022-12-27T06:53:59.478Z,9.78
2022-12-27T06:57:06.160Z,9.18
2022-12-27T07:00:14.215Z,10.35
2022-12-27T07:03:42.487Z,10.80
2022-12-27T07:06:55.324Z,10.13
2022-12-27T07:10:01.373Z,10.25
2022-12-27T07:13:06.547Z,9.30
2022-12-27T07:16:11.791Z,9.30
2022-12-27T07:19:23.760Z,9.50
2022-12-27T07:22:38.601Z,9.20
2022-12-27T07:25:51.007Z,8.93
2022-12-27T07:28:59.985Z,9.90
2022-12-27T07:32:07.998Z,9.20
2022-12-27T07:35:16.021Z,9.10
2022-12-27T07:38:24.524Z,9.85
2022-12-27T07:41:31.950Z,10.23
2022-12-27T07:44:38.131Z,9.33
2022-12-27T07:47:43.087Z,10.93
2022-12-27T07:50:53.682Z,11.85
2022-12-27T07:54:08.005Z,9.08
2022-12-27T07:57:29.762Z,11.50
2022-12-27T08:00:37.545Z,10.45
2022-12-27T08:03:43.314Z,9.33
2022-12-27T08:06:50.210Z,8.33
2022-12-27T08:09:59.599Z,9.33
2022-12-27T08:13:10.555Z,8.30
2022-12-27T08:16:17.679Z,8.53
2022-12-27T08:22:44.347Z,6.83
2022-12-27T08:25:52.634Z,8.10
2022-12-27T08:29:00.913Z,8.30
2022-12-27T08:32:22.409Z,8.48
2022-12-27T08:35:53.534Z,8.63
2022-12-27T08:39:09.664Z,7.50
2022-12-27T08:42:14.896Z,7.90
2022-12-27T08:45:22.158Z,11.03
2022-12-27T08:48:30.340Z,8.85
2022-12-27T08:51:41.289Z,7.17
2022-12-27T08:54:45.349Z,7.40
2022-12-27T08:57:51.515Z,6.95
2022-12-27T09:00:58.149Z,7.00
2022-12-27T09:04:03.510Z,7.08
2022-12-27T09:07:08.935Z,6.65
2022-12-27T09:10:15.445Z,6.80
2022-12-27T09:13:21.129Z,6.35
2022-12-27T09:16:30.871Z,5.78
2022-12-27T09:19:39.584Z,5.10
2022-12-27T09:22:44.928Z,5.75
2022-12-27T09:25:51.693Z,6.35
2022-12-27T09:28:59.309Z,9.65
2022-12-27T09:32:04.727Z,7.60
2022-12-27T09:35:12.541Z,6.30
2022-12-27T09:38:18.652Z,5.42
2022-12-27T09:45:11.677Z,6.40
2022-12-27T09:48:32.715Z,5.75
2022-12-27T09:51:44.741Z,6.17
2022-12-27T09:55:04.717Z,5.60
2022-12-27T09:58:13.838Z,6.08
2022-12-27T10:01:36.781Z,5.47
2022-12-27T10:05:18.437Z,5.30
2022-12-27T10:08:45.132Z,5.87
2022-12-27T10:12:20.344Z,5.35
2022-12-27T10:15:58.041Z,6.00
2022-12-27T10:19:29.313Z,5.85
2022-12-27T10:22:54.843Z,4.70
2022-12-27T10:26:02.393Z,5.50
2022-12-27T10:29:19.884Z,5.12
2022-12-27T10:32:28.372Z,5.37
2022-12-27T10:35:36.229Z,5.25
2022-12-27T10:38:47.384Z,5.53
2022-12-27T10:42:18.134Z,5.40
2022-12-27T10:45:51.276Z,4.85
2022-12-27T10:49:20.956Z,6.20
2022-12-27T10:52:36.257Z,5.97
2022-12-27T10:55:53.420Z,5.40
2022-12-27T10:59:03.308Z,6.12
2022-12-27T11:02:24.055Z,6.47
2022-12-27T11:05:39.915Z,5.05
2022-12-27T11:08:51.518Z,5.58
2022-12-27T11:11:59.060Z,5.20
2022-12-27T11:15:30.899Z,5.78
2022-12-27T11:18:37.075Z,5.33
2022-12-27T11:21:44.745Z,4.90
2022-12-27T11:24:52.572Z,5.15
2022-12-27T11:28:08.346Z,4.80
2022-12-27T11:31:33.204Z,4.90
2022-12-27T11:34:46.467Z,5.05
2022-12-27T11:37:55.237Z,5.67
2022-12-27T11:41:01.193Z,5.78
2022-12-27T11:44:15.851Z,6.17
2022-12-27T11:47:48.049Z,8.73
2022-12-27T11:51:05.793Z,6.10
2022-12-27T11:55:05.859Z,6.55
2022-12-27T11:58:34.380Z,8.25
2022-12-27T12:01:55.305Z,23.10
2022-12-27T12:05:27.229Z,8.58
2022-12-27T12:09:10.938Z,9.00
2022-12-27T12:12:37.810Z,13.55
2022-12-27T12:15:51.694Z,9.03
2022-12-27T12:19:20.265Z,7.05
2022-12-27T12:22:44.522Z,6.30
2022-12-27T12:26:25.419Z,6.12
2022-12-27T12:29:38.761Z,6.40
2022-12-27T12:33:06.328Z,6.80
2022-12-27T12:36:53.462Z,8.83
2022-12-27T12:40:31.116Z,12.03
2022-12-27T12:44:08.123Z,12.70
2022-12-27T12:47:41.256Z,9.95
2022-12-27T12:51:18.146Z,10.13
2022-12-27T12:55:00.446Z,12.85
2022-12-27T12:58:33.211Z,16.27
2022-12-27T13:01:51.171Z,13.53
2022-12-27T13:05:26.880Z,12.03
2022-12-27T13:08:56.422Z,11.20
2022-12-27T13:12:54.112Z,10.85
2022-12-27T13:16:36.079Z,12.78
2022-12-27T13:20:19.579Z,12.82
2022-12-27T13:27:02.505Z,21.20
2022-12-27T13:30:26.205Z,24.45
2022-12-27T13:33:43.853Z,15.38
2022-12-27T13:37:26.658Z,17.50
2022-12-27T13:40:58.155Z,20.30
2022-12-27T13:44:24.735Z,17.85
2022-12-27T13:47:50.621Z,21.60
2022-12-27T13:51:12.681Z,26.00
2022-12-27T13:54:57.360Z,41.17
2022-12-27T13:58:25.788Z,27.75
2022-12-27T14:01:45.284Z,18.25
2022-12-27T14:05:04.893Z,17.77
2022-12-27T14:09:01.302Z,18.07
2022-12-27T14:12:55.001Z,20.65
2022-12-27T14:16:28.350Z,35.92
2022-12-27T14:19:51.738Z,88.25
2022-12-27T14:23:10.513Z,23.25
2022-12-27T14:26:50.533Z,23.98
2022-12-27T14:30:43.583Z,24.60
2022-12-27T14:34:37.264Z,24.15
2022-12-27T14:38:33.579Z,21.75
2022-12-27T14:42:08.497Z,21.40
2022-12-27T14:45:31.123Z,20.77
2022-12-27T14:48:55.960Z,19.25
2022-12-27T14:52:19.948Z,17.73
2022-12-27T14:55:43.872Z,20.40
2022-12-27T14:59:02.331Z,17.95
2022-12-27T15:02:15.292Z,20.65
2022-12-27T15:05:59.879Z,22.60
2022-12-27T15:09:32.859Z,17.82
2022-12-27T15:13:16.859Z,19.40
2022-12-27T15:16:59.259Z,15.35
2022-12-27T15:20:26.134Z,15.27
2022-12-27T15:24:00.826Z,15.98
2022-12-27T15:27:31.817Z,17.87
2022-12-27T15:31:09.200Z,18.73
2022-12-27T15:35:02.838Z,18.65
2022-12-27T15:38:21.183Z,19.95
2022-12-27T15:41:38.749Z,21.00
2022-12-27T15:45:12.166Z,20.92
2022-12-27T15:48:46.101Z,18.85
2022-12-27T15:52:07.599Z,18.37
2022-12-27T15:55:43.592Z,20.53
2022-12-27T15:58:49.858Z,21.40
2022-12-27T16:01:55.440Z,21.93
2022-12-27T16:05:13.134Z,19.65
2022-12-27T16:08:27.090Z,20.62
2022-12-27T16:11:32.763Z,22.73
2022-12-27T16:14:44.385Z,21.30
2022-12-27T16:18:08.627Z,20.23
2022-12-27T16:21:30.522Z,20.62
2022-12-27T16:24:39.321Z,20.25
2022-12-27T16:27:47.285Z,19.98
2022-12-27T16:31:03.606Z,23.02
2022-12-27T16:34:10.985Z,33.35
2022-12-27T16:37:17.130Z,26.02
2022-12-27T16:40:55.524Z,22.85
2022-12-27T16:44:38.547Z,22.30
2022-12-27T16:48:13.101Z,23.35
2022-12-27T16:51:48.836Z,20.75
2022-12-27T16:55:21.346Z,22.58
2022-12-27T16:58:43.048Z,23.60
2022-12-27T17:02:02.471Z,33.50
2022-12-27T17:05:11.500Z,41.23
2022-12-27T17:08:28.961Z,31.77
2022-12-27T17:11:42.256Z,29.05
2022-12-27T17:14:50.999Z,29.82
2022-12-27T17:17:59.446Z,27.60
2022-12-27T17:21:11.947Z,25.95
2022-12-27T17:24:35.716Z,21.97
2022-12-27T17:28:00.876Z,23.25
2022-12-27T17:31:20.501Z,23.05
2022-12-27T17:34:43.909Z,23.07
2022-12-27T17:38:03.300Z,22.60
2022-12-27T17:41:57.956Z,23.57
2022-12-27T17:45:21.381Z,22.40
2022-12-27T17:51:44.513Z,26.25
2022-12-27T17:55:08.071Z,25.50
2022-12-27T17:58:18.474Z,30.23
2022-12-27T18:01:23.280Z,36.33
2022-12-27T18:04:38.508Z,27.60
2022-12-27T18:07:45.105Z,26.85
2022-12-27T18:10:52.946Z,23.25
2022-12-27T18:14:07.104Z,25.72
2022-12-27T18:17:14.497Z,26.55
2022-12-27T18:20:44.025Z,25.35
2022-12-27T18:24:00.227Z,23.18
2022-12-27T18:27:16.675Z,23.45
2022-12-27T18:30:25.816Z,22.70
2022-12-27T18:33:33.631Z,23.55
2022-12-27T18:36:56.147Z,25.37
2022-12-27T18:40:13.974Z,26.23
2022-12-27T18:43:22.769Z,26.33
2022-12-27T18:46:47.214Z,26.57
2022-12-27T18:49:57.213Z,24.47
2022-12-27T18:53:02.903Z,27.73
2022-12-27T18:56:24.496Z,28.80
2022-12-27T18:59:39.983Z,32.03
2022-12-27T19:02:51.100Z,36.58
2022-12-27T19:06:16.629Z,38.63
2022-12-27T19:09:29.295Z,37.17
2022-12-27T19:15:58.201Z,39.60
2022-12-27T19:19:09.183Z,38.25
2022-12-27T19:22:15.355Z,36.08
2022-12-27T19:25:41.358Z,32.78
2022-12-27T19:31:55.418Z,29.00
2022-12-27T19:35:07.303Z,28.20
2022-12-27T19:38:13.139Z,27.02
2022-12-27T19:41:17.756Z,27.32
2022-12-27T19:44:27.383Z,27.73
2022-12-27T19:47:33.517Z,25.32
2022-12-27T19:50:39.119Z,25.23
2022-12-27T19:53:57.670Z,25.45
2022-12-27T19:57:01.338Z,29.18
2022-12-27T20:00:12.406Z,24.15
2022-12-27T20:03:13.839Z,25.80
2022-12-27T20:06:24.041Z,26.42
2022-12-27T20:09:28.466Z,27.77
2022-12-27T20:12:35.268Z,25.60
2022-12-27T20:15:41.789Z,26.82
2022-12-27T20:18:48.361Z,25.65
2022-12-27T20:21:55.090Z,25.97
2022-12-27T20:25:01.574Z,28.42
2022-12-27T20:28:07.668Z,26.00
2022-12-27T20:31:08.358Z,24.55
2022-12-27T20:34:17.233Z,25.82
2022-12-27T20:37:24.907Z,27.07
2022-12-27T20:40:31.424Z,26.65
2022-12-27T20:43:37.707Z,24.10
2022-12-27T20:46:44.666Z,24.98
2022-12-27T20:49:52.887Z,22.37
2022-12-27T20:52:59.467Z,21.27
2022-12-27T20:56:16.360Z,18.25
2022-12-27T20:59:23.591Z,16.12
2022-12-27T21:02:30.318Z,13.43
2022-12-27T21:05:39.608Z,12.28
2022-12-27T21:08:55.971Z,10.75
2022-12-27T21:11:57.385Z,10.08
2022-12-27T21:15:05.354Z,9.63
2022-12-27T21:18:14.285Z,7.58
2022-12-27T21:21:21.622Z,8.10
2022-12-27T21:24:28.196Z,6.75
2022-12-27T21:27:35.534Z,7.03
2022-12-27T21:30:40.875Z,5.83
2022-12-27T21:33:47.199Z,5.12
2022-12-27T21:36:54.180Z,4.08
2022-12-27T21:40:00.691Z,4.47
2022-12-27T21:43:07.710Z,3.25
2022-12-27T21:46:13.701Z,2.70
2022-12-27T21:49:28.165Z,2.00
2022-12-27T21:52:33.524Z,1.85
2022-12-27T21:55:39.797Z,1.82
2022-12-27T21:58:47.980Z,1.95
2022-12-27T22:01:56.274Z,2.00
2022-12-27T22:05:04.391Z,1.80
2022-12-27T22:08:12.424Z,2.30
2022-12-27T22:11:18.096Z,1.62
2022-12-27T22:14:26.013Z,1.98
2022-12-27T22:17:32.753Z,1.60
2022-12-27T22:20:45.113Z,1.82
2022-12-27T22:23:50.783Z,1.60
2022-12-27T22:26:57.240Z,1.85
2022-12-27T22:30:03.838Z,1.87
2022-12-27T22:33:09.729Z,1.80
2022-12-27T22:36:21.027Z,2.65
2022-12-27T22:39:26.860Z,2.35
2022-12-27T22:42:32.738Z,2.62
2022-12-27T22:45:37.682Z,2.33
2022-12-27T22:48:45.360Z,1.60
2022-12-27T22:51:52.303Z,2.02
2022-12-27T22:55:04.327Z,1.50
2022-12-27T22:58:07.836Z,1.87
2022-12-27T23:01:14.712Z,1.80
2022-12-27T23:04:21.897Z,2.98
2022-12-27T23:08:05.146Z,2.95
2022-12-27T23:10:35.916Z,2.45
2022-12-27T23:13:43.287Z,2.72
2022-12-27T23:16:59.674Z,2.45
2022-12-27T23:20:06.309Z,3.17
2022-12-27T23:23:12.670Z,3.08
2022-12-27T23:26:25.456Z,2.35
2022-12-27T23:29:31.387Z,2.80
2022-12-27T23:32:36.914Z,2.67
2022-12-27T23:35:42.932Z,2.90
2022-12-27T23:38:48.404Z,3.15
2022-12-27T23:41:53.482Z,3.30
2022-12-27T23:44:59.175Z,4.50
2022-12-27T23:48:04.498Z,3.12
2022-12-27T23:51:11.219Z,3.20
2022-12-27T23:54:16.109Z,3.55
2022-12-27T23:57:22.830Z,3.37
